Terminal Aerodrome Forecast
Issued by NWS Upton, NY

Home | Current Version | Previous Version | Text Only | Print | Product List | Glossary On
Versions: 1 2 3 4 5 6 7 8 9 10 11 12 13 14 15 16 17 18 19 20 21 22 23 24 25 26 27 28 29 30 31 32
000
FTUS41 KOKX 302033 AAB
TAFLGA
TAF AMD
KLGA 302033Z 3021/3118 18020G28KT P6SM SCT045
     FM310000 18014G22KT P6SM FEW045 SCT250
     FM310200 19012KT P6SM SCT150 SCT250
     FM310900 21008KT 2SM BR BKN005
     FM311400 22008KT P6SM VCSH SCT035 BKN060=

USA.gov is the U.S. government's official web portal to all federal, state and local government web resources and services.